sensor_id;sensor_type;location;lat;lon;timestamp;P1;durP1;ratioP1;P2;durP2;ratioP2
41861;SDS011;27537;57.134;-2.136;2023-05-07T00:04:26;13.50;;;3.13;;
41861;SDS011;27537;57.134;-2.136;2023-05-07T00:06:54;13.82;;;3.58;;
41861;SDS011;27537;57.134;-2.136;2023-05-07T00:09:21;12.48;;;3.53;;
41861;SDS011;27537;57.134;-2.136;2023-05-07T00:11:48;21.00;;;3.17;;
41861;SDS011;27537;57.134;-2.136;2023-05-07T00:14:15;10.27;;;3.25;;
41861;SDS011;27537;57.134;-2.136;2023-05-07T00:16:42;14.68;;;4.03;;
41861;SDS011;27537;57.134;-2.136;2023-05-07T00:19:08;44.40;;;5.05;;
41861;SDS011;27537;57.134;-2.136;2023-05-07T00:21:35;19.15;;;3.60;;
41861;SDS011;27537;57.134;-2.136;2023-05-07T00:24:02;8.18;;;2.75;;
41861;SDS011;27537;57.134;-2.136;2023-05-07T00:26:29;17.38;;;3.22;;
41861;SDS011;27537;57.134;-2.136;2023-05-07T00:28:56;29.67;;;5.18;;
41861;SDS011;27537;57.134;-2.136;2023-05-07T00:31:23;26.50;;;5.75;;
41861;SDS011;27537;57.134;-2.136;2023-05-07T00:33:49;26.50;;;5.57;;
41861;SDS011;27537;57.134;-2.136;2023-05-07T00:36:16;11.00;;;2.80;;
41861;SDS011;27537;57.134;-2.136;2023-05-07T00:38:43;10.50;;;4.00;;
41861;SDS011;27537;57.134;-2.136;2023-05-07T00:41:10;9.93;;;3.40;;
41861;SDS011;27537;57.134;-2.136;2023-05-07T00:43:36;34.03;;;5.60;;
41861;SDS011;27537;57.134;-2.136;2023-05-07T00:46:04;29.38;;;5.00;;
41861;SDS011;27537;57.134;-2.136;2023-05-07T00:48:31;28.13;;;3.50;;
41861;SDS011;27537;57.134;-2.136;2023-05-07T00:50:58;11.98;;;3.53;;
41861;SDS011;27537;57.134;-2.136;2023-05-07T00:53:25;29.45;;;5.13;;
41861;SDS011;27537;57.134;-2.136;2023-05-07T00:55:52;20.52;;;5.22;;
41861;SDS011;27537;57.134;-2.136;2023-05-07T00:58:19;67.32;;;7.03;;
41861;SDS011;27537;57.134;-2.136;2023-05-07T01:00:47;14.88;;;3.72;;
41861;SDS011;27537;57.134;-2.136;2023-05-07T01:03:14;19.10;;;4.38;;
41861;SDS011;27537;57.134;-2.136;2023-05-07T01:05:41;40.35;;;5.68;;
41861;SDS011;27537;57.134;-2.136;2023-05-07T01:08:11;18.40;;;3.38;;
41861;SDS011;27537;57.134;-2.136;2023-05-07T01:10:41;18.48;;;3.38;;
41861;SDS011;27537;57.134;-2.136;2023-05-07T01:13:09;25.92;;;4.15;;
41861;SDS011;27537;57.134;-2.136;2023-05-07T01:15:37;18.27;;;3.72;;
41861;SDS011;27537;57.134;-2.136;2023-05-07T01:18:04;9.50;;;2.85;;
41861;SDS011;27537;57.134;-2.136;2023-05-07T01:20:33;16.55;;;3.92;;
41861;SDS011;27537;57.134;-2.136;2023-05-07T01:23:00;27.15;;;5.20;;
41861;SDS011;27537;57.134;-2.136;2023-05-07T01:25:27;6.15;;;2.17;;
41861;SDS011;27537;57.134;-2.136;2023-05-07T01:27:54;16.45;;;3.85;;
41861;SDS011;27537;57.134;-2.136;2023-05-07T01:30:21;12.50;;;2.83;;
41861;SDS011;27537;57.134;-2.136;2023-05-07T01:32:52;49.67;;;7.35;;
41861;SDS011;27537;57.134;-2.136;2023-05-07T01:35:26;6.95;;;2.22;;
41861;SDS011;27537;57.134;-2.136;2023-05-07T01:37:56;15.93;;;2.97;;
41861;SDS011;27537;57.134;-2.136;2023-05-07T01:40:24;24.42;;;4.60;;
41861;SDS011;27537;57.134;-2.136;2023-05-07T01:42:52;7.57;;;2.45;;
41861;SDS011;27537;57.134;-2.136;2023-05-07T01:45:20;23.02;;;5.00;;
41861;SDS011;27537;57.134;-2.136;2023-05-07T01:47:47;8.40;;;2.63;;
41861;SDS011;27537;57.134;-2.136;2023-05-07T01:50:14;8.35;;;2.60;;
41861;SDS011;27537;57.134;-2.136;2023-05-07T01:52:43;9.48;;;3.13;;
41861;SDS011;27537;57.134;-2.136;2023-05-07T01:55:10;8.45;;;2.78;;
41861;SDS011;27537;57.134;-2.136;2023-05-07T01:57:37;14.85;;;3.00;;
41861;SDS011;27537;57.134;-2.136;2023-05-07T02:00:04;11.18;;;3.58;;
41861;SDS011;27537;57.134;-2.136;2023-05-07T02:02:31;14.95;;;3.83;;
41861;SDS011;27537;57.134;-2.136;2023-05-07T02:04:58;9.70;;;3.00;;
41861;SDS011;27537;57.134;-2.136;2023-05-07T02:07:27;22.05;;;4.65;;
41861;SDS011;27537;57.134;-2.136;2023-05-07T02:09:54;10.05;;;3.55;;
41861;SDS011;27537;57.134;-2.136;2023-05-07T02:12:22;13.85;;;3.63;;
41861;SDS011;27537;57.134;-2.136;2023-05-07T02:14:49;8.68;;;2.47;;
41861;SDS011;27537;57.134;-2.136;2023-05-07T02:17:16;13.15;;;3.78;;
41861;SDS011;27537;57.134;-2.136;2023-05-07T02:19:42;10.85;;;3.40;;
41861;SDS011;27537;57.134;-2.136;2023-05-07T02:22:09;7.47;;;2.80;;
41861;SDS011;27537;57.134;-2.136;2023-05-07T02:24:36;10.68;;;3.00;;
41861;SDS011;27537;57.134;-2.136;2023-05-07T02:27:03;8.02;;;2.45;;
41861;SDS011;27537;57.134;-2.136;2023-05-07T02:29:30;9.00;;;2.60;;
41861;SDS011;27537;57.134;-2.136;2023-05-07T02:31:56;7.38;;;2.47;;
41861;SDS011;27537;57.134;-2.136;2023-05-07T02:34:23;7.28;;;2.67;;
41861;SDS011;27537;57.134;-2.136;2023-05-07T02:36:50;10.35;;;3.05;;
41861;SDS011;27537;57.134;-2.136;2023-05-07T02:39:16;10.73;;;3.65;;
41861;SDS011;27537;57.134;-2.136;2023-05-07T02:41:43;10.38;;;2.65;;
41861;SDS011;27537;57.134;-2.136;2023-05-07T02:44:10;9.90;;;3.50;;
41861;SDS011;27537;57.134;-2.136;2023-05-07T02:46:37;8.93;;;2.92;;
41861;SDS011;27537;57.134;-2.136;2023-05-07T02:49:03;9.75;;;3.15;;
41861;SDS011;27537;57.134;-2.136;2023-05-07T02:51:30;10.00;;;3.60;;
41861;SDS011;27537;57.134;-2.136;2023-05-07T02:53:57;9.70;;;3.17;;
41861;SDS011;27537;57.134;-2.136;2023-05-07T02:56:25;9.02;;;2.90;;
41861;SDS011;27537;57.134;-2.136;2023-05-07T02:58:53;12.45;;;3.78;;
41861;SDS011;27537;57.134;-2.136;2023-05-07T03:01:19;6.93;;;2.33;;
41861;SDS011;27537;57.134;-2.136;2023-05-07T03:03:47;17.50;;;3.88;;
41861;SDS011;27537;57.134;-2.136;2023-05-07T03:06:14;9.27;;;2.45;;
41861;SDS011;27537;57.134;-2.136;2023-05-07T03:08:41;9.25;;;3.10;;
41861;SDS011;27537;57.134;-2.136;2023-05-07T03:11:08;8.15;;;2.58;;
41861;SDS011;27537;57.134;-2.136;2023-05-07T03:13:35;15.82;;;4.65;;
41861;SDS011;27537;57.134;-2.136;2023-05-07T03:16:01;13.57;;;3.97;;
41861;SDS011;27537;57.134;-2.136;2023-05-07T03:18:28;11.60;;;3.40;;
41861;SDS011;27537;57.134;-2.136;2023-05-07T03:20:55;10.30;;;2.95;;
41861;SDS011;27537;57.134;-2.136;2023-05-07T03:23:22;14.70;;;3.78;;
41861;SDS011;27537;57.134;-2.136;2023-05-07T03:25:50;17.30;;;4.30;;
41861;SDS011;27537;57.134;-2.136;2023-05-07T03:28:17;19.77;;;4.55;;
41861;SDS011;27537;57.134;-2.136;2023-05-07T03:30:44;25.48;;;4.78;;
41861;SDS011;27537;57.134;-2.136;2023-05-07T03:33:11;21.15;;;5.05;;
41861;SDS011;27537;57.134;-2.136;2023-05-07T03:35:37;10.60;;;3.58;;
41861;SDS011;27537;57.134;-2.136;2023-05-07T03:38:04;17.65;;;4.05;;
41861;SDS011;27537;57.134;-2.136;2023-05-07T03:40:31;14.93;;;3.67;;
41861;SDS011;27537;57.134;-2.136;2023-05-07T03:42:59;10.05;;;3.10;;
41861;SDS011;27537;57.134;-2.136;2023-05-07T03:45:26;8.25;;;2.47;;
41861;SDS011;27537;57.134;-2.136;2023-05-07T03:47:53;11.77;;;3.45;;
41861;SDS011;27537;57.134;-2.136;2023-05-07T03:50:20;14.73;;;4.10;;
41861;SDS011;27537;57.134;-2.136;2023-05-07T03:52:46;17.42;;;3.55;;
41861;SDS011;27537;57.134;-2.136;2023-05-07T03:55:13;12.10;;;3.55;;
41861;SDS011;27537;57.134;-2.136;2023-05-07T03:57:40;22.33;;;4.00;;
41861;SDS011;27537;57.134;-2.136;2023-05-07T04:00:07;21.95;;;4.85;;
41861;SDS011;27537;57.134;-2.136;2023-05-07T04:02:35;9.80;;;3.13;;
41861;SDS011;27537;57.134;-2.136;2023-05-07T04:05:02;19.40;;;4.57;;
41861;SDS011;27537;57.134;-2.136;2023-05-07T04:07:29;21.15;;;4.85;;
41861;SDS011;27537;57.134;-2.136;2023-05-07T04:09:55;15.15;;;3.95;;
41861;SDS011;27537;57.134;-2.136;2023-05-07T04:12:22;17.10;;;4.57;;
41861;SDS011;27537;57.134;-2.136;2023-05-07T04:14:49;34.50;;;5.93;;
41861;SDS011;27537;57.134;-2.136;2023-05-07T04:17:16;41.10;;;7.10;;
41861;SDS011;27537;57.134;-2.136;2023-05-07T04:19:43;47.70;;;6.45;;
41861;SDS011;27537;57.134;-2.136;2023-05-07T04:22:12;19.80;;;5.63;;
41861;SDS011;27537;57.134;-2.136;2023-05-07T04:24:38;14.63;;;3.63;;
41861;SDS011;27537;57.134;-2.136;2023-05-07T04:27:05;20.35;;;4.95;;
41861;SDS011;27537;57.134;-2.136;2023-05-07T04:29:32;12.60;;;4.25;;
41861;SDS011;27537;57.134;-2.136;2023-05-07T04:31:59;45.90;;;8.50;;
41861;SDS011;27537;57.134;-2.136;2023-05-07T04:34:26;12.20;;;4.85;;
41861;SDS011;27537;57.134;-2.136;2023-05-07T04:36:53;17.25;;;4.20;;
41861;SDS011;27537;57.134;-2.136;2023-05-07T04:39:20;16.88;;;4.72;;
41861;SDS011;27537;57.134;-2.136;2023-05-07T04:41:46;14.38;;;4.43;;
41861;SDS011;27537;57.134;-2.136;2023-05-07T04:44:13;12.88;;;3.55;;
41861;SDS011;27537;57.134;-2.136;2023-05-07T04:46:40;28.75;;;5.82;;
41861;SDS011;27537;57.134;-2.136;2023-05-07T04:49:06;10.82;;;3.60;;
41861;SDS011;27537;57.134;-2.136;2023-05-07T04:51:33;18.05;;;4.70;;
41861;SDS011;27537;57.134;-2.136;2023-05-07T04:54:00;14.18;;;3.92;;
41861;SDS011;27537;57.134;-2.136;2023-05-07T04:56:27;27.05;;;4.93;;
41861;SDS011;27537;57.134;-2.136;2023-05-07T04:58:56;26.98;;;5.28;;
41861;SDS011;27537;57.134;-2.136;2023-05-07T05:01:22;24.25;;;5.18;;
41861;SDS011;27537;57.134;-2.136;2023-05-07T05:03:49;23.20;;;6.28;;
41861;SDS011;27537;57.134;-2.136;2023-05-07T05:06:16;32.95;;;6.97;;
41861;SDS011;27537;57.134;-2.136;2023-05-07T05:08:43;12.18;;;3.67;;
41861;SDS011;27537;57.134;-2.136;2023-05-07T05:11:10;16.00;;;4.10;;
41861;SDS011;27537;57.134;-2.136;2023-05-07T05:13:36;17.40;;;5.07;;
41861;SDS011;27537;57.134;-2.136;2023-05-07T05:16:03;26.33;;;5.15;;
41861;SDS011;27537;57.134;-2.136;2023-05-07T05:18:30;15.80;;;3.85;;
41861;SDS011;27537;57.134;-2.136;2023-05-07T05:20:57;28.60;;;5.80;;
41861;SDS011;27537;57.134;-2.136;2023-05-07T05:23:24;16.63;;;4.65;;
41861;SDS011;27537;57.134;-2.136;2023-05-07T05:25:54;29.60;;;5.63;;
41861;SDS011;27537;57.134;-2.136;2023-05-07T05:28:22;18.65;;;4.57;;
41861;SDS011;27537;57.134;-2.136;2023-05-07T05:30:49;10.20;;;3.35;;
41861;SDS011;27537;57.134;-2.136;2023-05-07T05:33:16;12.40;;;4.43;;
41861;SDS011;27537;57.134;-2.136;2023-05-07T05:35:43;18.30;;;4.50;;
41861;SDS011;27537;57.134;-2.136;2023-05-07T05:38:10;15.48;;;4.43;;
41861;SDS011;27537;57.134;-2.136;2023-05-07T05:40:37;16.85;;;4.95;;
41861;SDS011;27537;57.134;-2.136;2023-05-07T05:43:03;15.93;;;3.83;;
41861;SDS011;27537;57.134;-2.136;2023-05-07T05:45:30;16.60;;;4.57;;
41861;SDS011;27537;57.134;-2.136;2023-05-07T05:47:57;20.98;;;4.85;;
41861;SDS011;27537;57.134;-2.136;2023-05-07T05:50:24;14.70;;;4.80;;
41861;SDS011;27537;57.134;-2.136;2023-05-07T05:52:51;48.00;;;6.32;;
41861;SDS011;27537;57.134;-2.136;2023-05-07T05:55:17;11.23;;;3.83;;
41861;SDS011;27537;57.134;-2.136;2023-05-07T05:57:44;31.92;;;5.80;;
41861;SDS011;27537;57.134;-2.136;2023-05-07T06:00:12;18.60;;;4.50;;
41861;SDS011;27537;57.134;-2.136;2023-05-07T06:02:39;65.85;;;9.15;;
41861;SDS011;27537;57.134;-2.136;2023-05-07T06:05:06;14.25;;;4.57;;
41861;SDS011;27537;57.134;-2.136;2023-05-07T06:07:34;12.48;;;4.20;;
41861;SDS011;27537;57.134;-2.136;2023-05-07T06:10:01;14.93;;;3.88;;
41861;SDS011;27537;57.134;-2.136;2023-05-07T06:12:27;29.60;;;5.47;;
41861;SDS011;27537;57.134;-2.136;2023-05-07T06:14:54;23.67;;;6.22;;
41861;SDS011;27537;57.134;-2.136;2023-05-07T06:17:21;10.10;;;3.75;;
41861;SDS011;27537;57.134;-2.136;2023-05-07T06:19:48;9.80;;;3.05;;
41861;SDS011;27537;57.134;-2.136;2023-05-07T06:22:14;44.38;;;5.78;;
41861;SDS011;27537;57.134;-2.136;2023-05-07T06:24:41;31.65;;;6.30;;
41861;SDS011;27537;57.134;-2.136;2023-05-07T06:27:08;31.38;;;6.53;;
41861;SDS011;27537;57.134;-2.136;2023-05-07T06:29:35;17.52;;;6.15;;
41861;SDS011;27537;57.134;-2.136;2023-05-07T06:32:11;12.93;;;3.90;;
41861;SDS011;27537;57.134;-2.136;2023-05-07T06:34:39;16.25;;;5.10;;
41861;SDS011;27537;57.134;-2.136;2023-05-07T06:37:07;23.70;;;7.00;;
41861;SDS011;27537;57.134;-2.136;2023-05-07T06:39:34;29.33;;;7.72;;
41861;SDS011;27537;57.134;-2.136;2023-05-07T06:42:00;25.70;;;7.72;;
41861;SDS011;27537;57.134;-2.136;2023-05-07T06:44:28;17.65;;;5.88;;
41861;SDS011;27537;57.134;-2.136;2023-05-07T06:46:55;16.08;;;5.75;;
41861;SDS011;27537;57.134;-2.136;2023-05-07T06:49:22;14.73;;;5.68;;
41861;SDS011;27537;57.134;-2.136;2023-05-07T06:51:49;25.77;;;7.15;;
41861;SDS011;27537;57.134;-2.136;2023-05-07T06:54:15;51.78;;;9.55;;
41861;SDS011;27537;57.134;-2.136;2023-05-07T06:56:42;23.33;;;6.18;;
41861;SDS011;27537;57.134;-2.136;2023-05-07T06:59:09;34.25;;;8.20;;
41861;SDS011;27537;57.134;-2.136;2023-05-07T07:01:36;19.73;;;6.18;;
41861;SDS011;27537;57.134;-2.136;2023-05-07T07:04:03;16.55;;;5.63;;
41861;SDS011;27537;57.134;-2.136;2023-05-07T07:06:30;23.67;;;6.88;;
41861;SDS011;27537;57.134;-2.136;2023-05-07T07:08:58;34.47;;;7.22;;
41861;SDS011;27537;57.134;-2.136;2023-05-07T07:11:25;18.80;;;6.40;;
41861;SDS011;27537;57.134;-2.136;2023-05-07T07:13:52;33.17;;;7.78;;
41861;SDS011;27537;57.134;-2.136;2023-05-07T07:16:21;30.25;;;7.68;;
41861;SDS011;27537;57.134;-2.136;2023-05-07T07:18:48;22.02;;;6.90;;
41861;SDS011;27537;57.134;-2.136;2023-05-07T07:21:15;14.05;;;4.95;;
41861;SDS011;27537;57.134;-2.136;2023-05-07T07:23:41;16.92;;;5.45;;
41861;SDS011;27537;57.134;-2.136;2023-05-07T07:26:08;53.97;;;8.15;;
41861;SDS011;27537;57.134;-2.136;2023-05-07T07:28:35;28.30;;;6.68;;
41861;SDS011;27537;57.134;-2.136;2023-05-07T07:31:10;24.15;;;5.95;;
41861;SDS011;27537;57.134;-2.136;2023-05-07T07:33:37;20.08;;;5.50;;
41861;SDS011;27537;57.134;-2.136;2023-05-07T07:36:05;17.92;;;6.13;;
41861;SDS011;27537;57.134;-2.136;2023-05-07T07:38:33;19.25;;;4.80;;
41861;SDS011;27537;57.134;-2.136;2023-05-07T07:41:00;25.00;;;8.35;;
41861;SDS011;27537;57.134;-2.136;2023-05-07T07:43:28;21.25;;;6.10;;
41861;SDS011;27537;57.134;-2.136;2023-05-07T07:45:55;15.20;;;6.60;;
41861;SDS011;27537;57.134;-2.136;2023-05-07T07:48:21;21.90;;;7.88;;
41861;SDS011;27537;57.134;-2.136;2023-05-07T07:50:49;12.70;;;4.47;;
41861;SDS011;27537;57.134;-2.136;2023-05-07T07:53:17;11.43;;;3.97;;
41861;SDS011;27537;57.134;-2.136;2023-05-07T07:55:44;10.70;;;3.35;;
41861;SDS011;27537;57.134;-2.136;2023-05-07T07:58:11;11.63;;;4.68;;
41861;SDS011;27537;57.134;-2.136;2023-05-07T08:00:38;10.32;;;3.38;;
41861;SDS011;27537;57.134;-2.136;2023-05-07T08:03:05;13.85;;;5.50;;
41861;SDS011;27537;57.134;-2.136;2023-05-07T08:05:33;12.05;;;3.80;;
41861;SDS011;27537;57.134;-2.136;2023-05-07T08:08:00;12.30;;;4.45;;
41861;SDS011;27537;57.134;-2.136;2023-05-07T08:10:27;16.50;;;5.50;;
41861;SDS011;27537;57.134;-2.136;2023-05-07T08:12:54;18.02;;;5.03;;
41861;SDS011;27537;57.134;-2.136;2023-05-07T08:15:20;16.35;;;5.07;;
41861;SDS011;27537;57.134;-2.136;2023-05-07T08:17:47;12.88;;;4.30;;
41861;SDS011;27537;57.134;-2.136;2023-05-07T08:20:14;12.20;;;4.35;;
41861;SDS011;27537;57.134;-2.136;2023-05-07T08:22:41;14.68;;;5.45;;
41861;SDS011;27537;57.134;-2.136;2023-05-07T08:25:08;11.13;;;4.20;;
41861;SDS011;27537;57.134;-2.136;2023-05-07T08:27:35;14.48;;;5.20;;
41861;SDS011;27537;57.134;-2.136;2023-05-07T08:30:02;14.77;;;5.43;;
41861;SDS011;27537;57.134;-2.136;2023-05-07T08:32:29;12.48;;;5.00;;
41861;SDS011;27537;57.134;-2.136;2023-05-07T08:34:56;14.77;;;6.07;;
41861;SDS011;27537;57.134;-2.136;2023-05-07T08:37:23;17.80;;;6.03;;
41861;SDS011;27537;57.134;-2.136;2023-05-07T08:39:49;22.75;;;7.18;;
41861;SDS011;27537;57.134;-2.136;2023-05-07T08:42:16;14.60;;;5.25;;
41861;SDS011;27537;57.134;-2.136;2023-05-07T08:44:45;14.85;;;5.60;;
41861;SDS011;27537;57.134;-2.136;2023-05-07T08:47:15;20.17;;;5.70;;
41861;SDS011;27537;57.134;-2.136;2023-05-07T08:49:42;24.10;;;7.18;;
41861;SDS011;27537;57.134;-2.136;2023-05-07T08:52:11;32.95;;;7.60;;
41861;SDS011;27537;57.134;-2.136;2023-05-07T08:54:38;27.80;;;7.90;;
41861;SDS011;27537;57.134;-2.136;2023-05-07T08:57:05;38.58;;;10.45;;
41861;SDS011;27537;57.134;-2.136;2023-05-07T08:59:32;19.23;;;6.43;;
41861;SDS011;27537;57.134;-2.136;2023-05-07T09:01:59;18.15;;;7.45;;
41861;SDS011;27537;57.134;-2.136;2023-05-07T09:04:26;26.92;;;8.88;;
41861;SDS011;27537;57.134;-2.136;2023-05-07T09:06:53;16.42;;;6.57;;
41861;SDS011;27537;57.134;-2.136;2023-05-07T09:09:21;16.85;;;7.88;;
41861;SDS011;27537;57.134;-2.136;2023-05-07T09:11:48;19.20;;;6.97;;
41861;SDS011;27537;57.134;-2.136;2023-05-07T09:14:14;25.17;;;9.48;;
41861;SDS011;27537;57.134;-2.136;2023-05-07T09:16:41;27.17;;;9.07;;
41861;SDS011;27537;57.134;-2.136;2023-05-07T09:19:08;27.52;;;7.47;;
41861;SDS011;27537;57.134;-2.136;2023-05-07T09:21:35;23.45;;;8.00;;
41861;SDS011;27537;57.134;-2.136;2023-05-07T09:24:02;39.38;;;10.02;;
41861;SDS011;27537;57.134;-2.136;2023-05-07T09:26:28;27.70;;;8.10;;
41861;SDS011;27537;57.134;-2.136;2023-05-07T09:28:55;22.88;;;8.38;;
41861;SDS011;27537;57.134;-2.136;2023-05-07T09:31:22;17.45;;;6.50;;
41861;SDS011;27537;57.134;-2.136;2023-05-07T09:33:50;37.92;;;9.82;;
41861;SDS011;27537;57.134;-2.136;2023-05-07T09:36:16;45.08;;;11.50;;
41861;SDS011;27537;57.134;-2.136;2023-05-07T09:38:44;63.30;;;12.13;;
41861;SDS011;27537;57.134;-2.136;2023-05-07T09:41:12;38.22;;;10.13;;
41861;SDS011;27537;57.134;-2.136;2023-05-07T09:43:39;75.80;;;13.82;;
41861;SDS011;27537;57.134;-2.136;2023-05-07T09:46:08;62.28;;;11.15;;
41861;SDS011;27537;57.134;-2.136;2023-05-07T09:48:38;49.60;;;11.65;;
41861;SDS011;27537;57.134;-2.136;2023-05-07T09:51:10;31.98;;;9.52;;
41861;SDS011;27537;57.134;-2.136;2023-05-07T09:53:57;20.85;;;8.00;;
41861;SDS011;27537;57.134;-2.136;2023-05-07T09:56:27;64.50;;;12.32;;
41861;SDS011;27537;57.134;-2.136;2023-05-07T09:58:56;39.67;;;9.57;;
41861;SDS011;27537;57.134;-2.136;2023-05-07T10:01:26;33.58;;;9.85;;
41861;SDS011;27537;57.134;-2.136;2023-05-07T10:03:54;28.35;;;9.65;;
41861;SDS011;27537;57.134;-2.136;2023-05-07T10:06:23;79.95;;;14.57;;
41861;SDS011;27537;57.134;-2.136;2023-05-07T10:08:51;76.18;;;15.13;;
41861;SDS011;27537;57.134;-2.136;2023-05-07T10:11:19;56.88;;;12.23;;
41861;SDS011;27537;57.134;-2.136;2023-05-07T10:13:46;28.80;;;9.82;;
41861;SDS011;27537;57.134;-2.136;2023-05-07T10:16:14;37.40;;;9.70;;
41861;SDS011;27537;57.134;-2.136;2023-05-07T10:18:41;23.85;;;9.10;;
41861;SDS011;27537;57.134;-2.136;2023-05-07T10:21:16;24.85;;;9.45;;
41861;SDS011;27537;57.134;-2.136;2023-05-07T10:23:48;22.30;;;8.73;;
41861;SDS011;27537;57.134;-2.136;2023-05-07T10:26:20;20.73;;;7.68;;
41861;SDS011;27537;57.134;-2.136;2023-05-07T10:28:50;16.67;;;7.30;;
41861;SDS011;27537;57.134;-2.136;2023-05-07T10:34:26;15.55;;;6.78;;
41861;SDS011;27537;57.134;-2.136;2023-05-07T10:36:58;17.02;;;7.22;;
41861;SDS011;27537;57.134;-2.136;2023-05-07T10:39:26;13.10;;;5.88;;
41861;SDS011;27537;57.134;-2.136;2023-05-07T10:41:53;12.73;;;6.22;;
41861;SDS011;27537;57.134;-2.136;2023-05-07T10:44:27;10.57;;;4.60;;
41861;SDS011;27537;57.134;-2.136;2023-05-07T10:47:04;10.65;;;4.85;;
41861;SDS011;27537;57.134;-2.136;2023-05-07T10:52:16;10.85;;;4.30;;
41861;SDS011;27537;57.134;-2.136;2023-05-07T10:54:44;9.52;;;4.03;;
41861;SDS011;27537;57.134;-2.136;2023-05-07T11:00:03;10.95;;;4.15;;
41861;SDS011;27537;57.134;-2.136;2023-05-07T11:03:04;9.40;;;3.25;;
41861;SDS011;27537;57.134;-2.136;2023-05-07T11:05:33;10.98;;;4.70;;
41861;SDS011;27537;57.134;-2.136;2023-05-07T11:08:03;11.52;;;5.03;;
41861;SDS011;27537;57.134;-2.136;2023-05-07T11:10:50;11.40;;;4.82;;
41861;SDS011;27537;57.134;-2.136;2023-05-07T11:13:42;10.90;;;4.97;;
41861;SDS011;27537;57.134;-2.136;2023-05-07T11:16:17;9.20;;;3.67;;
41861;SDS011;27537;57.134;-2.136;2023-05-07T11:18:49;8.02;;;3.10;;
41861;SDS011;27537;57.134;-2.136;2023-05-07T11:24:06;10.07;;;3.92;;
41861;SDS011;27537;57.134;-2.136;2023-05-07T11:26:47;10.75;;;4.65;;
41861;SDS011;27537;57.134;-2.136;2023-05-07T11:29:16;10.38;;;4.07;;
41861;SDS011;27537;57.134;-2.136;2023-05-07T11:31:53;8.70;;;3.55;;
41861;SDS011;27537;57.134;-2.136;2023-05-07T11:34:22;10.80;;;4.78;;
41861;SDS011;27537;57.134;-2.136;2023-05-07T11:36:51;12.25;;;4.20;;
41861;SDS011;27537;57.134;-2.136;2023-05-07T11:39:25;12.43;;;5.60;;
41861;SDS011;27537;57.134;-2.136;2023-05-07T11:41:52;11.15;;;4.50;;
41861;SDS011;27537;57.134;-2.136;2023-05-07T11:44:19;12.45;;;5.05;;
41861;SDS011;27537;57.134;-2.136;2023-05-07T11:46:46;11.88;;;6.00;;
41861;SDS011;27537;57.134;-2.136;2023-05-07T11:49:13;12.25;;;5.93;;
41861;SDS011;27537;57.134;-2.136;2023-05-07T11:51:39;13.40;;;5.70;;
41861;SDS011;27537;57.134;-2.136;2023-05-07T11:54:08;14.25;;;6.07;;
41861;SDS011;27537;57.134;-2.136;2023-05-07T11:56:37;13.50;;;5.80;;
41861;SDS011;27537;57.134;-2.136;2023-05-07T11:59:05;12.38;;;5.35;;
41861;SDS011;27537;57.134;-2.136;2023-05-07T12:01:32;13.55;;;5.43;;
41861;SDS011;27537;57.134;-2.136;2023-05-07T12:04:02;13.10;;;5.95;;
41861;SDS011;27537;57.134;-2.136;2023-05-07T12:06:35;11.18;;;4.97;;
41861;SDS011;27537;57.134;-2.136;2023-05-07T12:09:02;10.20;;;4.03;;
41861;SDS011;27537;57.134;-2.136;2023-05-07T12:11:30;13.50;;;6.47;;
41861;SDS011;27537;57.134;-2.136;2023-05-07T12:13:57;13.18;;;5.80;;
41861;SDS011;27537;57.134;-2.136;2023-05-07T12:16:25;13.00;;;5.38;;
41861;SDS011;27537;57.134;-2.136;2023-05-07T12:18:53;15.35;;;6.43;;
41861;SDS011;27537;57.134;-2.136;2023-05-07T12:21:21;16.98;;;8.40;;
41861;SDS011;27537;57.134;-2.136;2023-05-07T12:23:49;17.02;;;8.00;;
41861;SDS011;27537;57.134;-2.136;2023-05-07T12:26:16;15.27;;;7.15;;
41861;SDS011;27537;57.134;-2.136;2023-05-07T12:28:45;15.77;;;7.15;;
41861;SDS011;27537;57.134;-2.136;2023-05-07T12:31:13;16.40;;;7.68;;
41861;SDS011;27537;57.134;-2.136;2023-05-07T12:33:41;19.48;;;9.10;;
41861;SDS011;27537;57.134;-2.136;2023-05-07T12:36:08;19.65;;;8.95;;
41861;SDS011;27537;57.134;-2.136;2023-05-07T12:38:38;18.70;;;7.95;;
41861;SDS011;27537;57.134;-2.136;2023-05-07T12:41:08;17.30;;;7.65;;
41861;SDS011;27537;57.134;-2.136;2023-05-07T12:43:36;16.98;;;7.35;;
41861;SDS011;27537;57.134;-2.136;2023-05-07T12:46:04;16.25;;;7.13;;
41861;SDS011;27537;57.134;-2.136;2023-05-07T12:48:32;17.83;;;7.47;;
41861;SDS011;27537;57.134;-2.136;2023-05-07T12:51:00;16.17;;;7.55;;
41861;SDS011;27537;57.134;-2.136;2023-05-07T12:53:28;14.10;;;7.22;;
41861;SDS011;27537;57.134;-2.136;2023-05-07T12:55:56;14.68;;;6.72;;
41861;SDS011;27537;57.134;-2.136;2023-05-07T12:58:28;15.80;;;6.70;;
41861;SDS011;27537;57.134;-2.136;2023-05-07T13:00:56;14.30;;;6.32;;
41861;SDS011;27537;57.134;-2.136;2023-05-07T13:05:57;16.17;;;7.13;;
41861;SDS011;27537;57.134;-2.136;2023-05-07T13:08:27;13.70;;;6.55;;
41861;SDS011;27537;57.134;-2.136;2023-05-07T13:10:58;16.98;;;8.55;;
41861;SDS011;27537;57.134;-2.136;2023-05-07T13:13:30;20.80;;;9.90;;
41861;SDS011;27537;57.134;-2.136;2023-05-07T13:15:58;22.55;;;9.90;;
41861;SDS011;27537;57.134;-2.136;2023-05-07T13:18:25;20.48;;;9.95;;
41861;SDS011;27537;57.134;-2.136;2023-05-07T13:20:53;20.23;;;8.55;;
41861;SDS011;27537;57.134;-2.136;2023-05-07T13:23:20;19.35;;;8.77;;
41861;SDS011;27537;57.134;-2.136;2023-05-07T13:25:47;16.10;;;6.78;;
41861;SDS011;27537;57.134;-2.136;2023-05-07T13:28:14;14.57;;;6.55;;
41861;SDS011;27537;57.134;-2.136;2023-05-07T13:30:41;14.43;;;6.65;;
41861;SDS011;27537;57.134;-2.136;2023-05-07T13:33:08;16.17;;;6.68;;
41861;SDS011;27537;57.134;-2.136;2023-05-07T13:35:35;13.57;;;5.32;;
41861;SDS011;27537;57.134;-2.136;2023-05-07T13:38:02;10.85;;;4.30;;
41861;SDS011;27537;57.134;-2.136;2023-05-07T13:40:29;9.02;;;3.65;;
41861;SDS011;27537;57.134;-2.136;2023-05-07T13:42:57;10.70;;;4.32;;
41861;SDS011;27537;57.134;-2.136;2023-05-07T13:45:24;8.93;;;3.50;;
41861;SDS011;27537;57.134;-2.136;2023-05-07T13:47:52;9.63;;;4.13;;
41861;SDS011;27537;57.134;-2.136;2023-05-07T13:50:19;10.02;;;4.15;;
41861;SDS011;27537;57.134;-2.136;2023-05-07T13:52:46;11.10;;;4.55;;
41861;SDS011;27537;57.134;-2.136;2023-05-07T13:55:17;12.80;;;5.30;;
41861;SDS011;27537;57.134;-2.136;2023-05-07T13:57:44;10.57;;;4.10;;
41861;SDS011;27537;57.134;-2.136;2023-05-07T14:00:12;10.63;;;3.95;;
41861;SDS011;27537;57.134;-2.136;2023-05-07T14:02:40;9.00;;;3.33;;
41861;SDS011;27537;57.134;-2.136;2023-05-07T14:05:07;8.60;;;3.30;;
41861;SDS011;27537;57.134;-2.136;2023-05-07T14:07:35;9.68;;;3.40;;
41861;SDS011;27537;57.134;-2.136;2023-05-07T14:10:02;7.68;;;3.08;;
41861;SDS011;27537;57.134;-2.136;2023-05-07T14:12:29;8.00;;;3.13;;
41861;SDS011;27537;57.134;-2.136;2023-05-07T14:14:56;7.63;;;2.83;;
41861;SDS011;27537;57.134;-2.136;2023-05-07T14:17:23;8.73;;;2.90;;
41861;SDS011;27537;57.134;-2.136;2023-05-07T14:19:51;8.70;;;3.17;;
41861;SDS011;27537;57.134;-2.136;2023-05-07T14:22:23;9.82;;;3.45;;
41861;SDS011;27537;57.134;-2.136;2023-05-07T14:24:50;9.57;;;4.03;;
41861;SDS011;27537;57.134;-2.136;2023-05-07T14:27:31;9.57;;;3.60;;
41861;SDS011;27537;57.134;-2.136;2023-05-07T14:29:58;10.88;;;4.40;;
41861;SDS011;27537;57.134;-2.136;2023-05-07T14:32:25;8.60;;;3.78;;
41861;SDS011;27537;57.134;-2.136;2023-05-07T14:34:52;9.73;;;4.30;;
41861;SDS011;27537;57.134;-2.136;2023-05-07T14:37:19;10.88;;;4.90;;
41861;SDS011;27537;57.134;-2.136;2023-05-07T14:39:46;9.45;;;3.92;;
41861;SDS011;27537;57.134;-2.136;2023-05-07T14:42:16;10.43;;;4.43;;
41861;SDS011;27537;57.134;-2.136;2023-05-07T14:44:43;12.18;;;5.00;;